createdAt,value
2018-05-13T00:00:45.272Z,62.46
2018-05-13T00:03:13.534Z,62.22
2018-05-13T00:05:41.833Z,62.94
2018-05-13T00:08:10.110Z,62.77
2018-05-13T00:10:38.423Z,63.63
2018-05-13T00:13:06.719Z,64.53
2018-05-13T00:15:35.017Z,64.43
2018-05-13T00:18:03.339Z,63.27
2018-05-13T00:20:32.170Z,62.97
2018-05-13T00:23:00.458Z,62.85
2018-05-13T00:25:28.809Z,64.40
2018-05-13T00:27:57.110Z,65.10
2018-05-13T00:30:25.388Z,65.40
2018-05-13T00:32:53.674Z,66.29
2018-05-13T00:35:21.926Z,64.85
2018-05-13T00:37:51.003Z,64.23
2018-05-13T00:40:19.278Z,64.23
2018-05-13T00:42:47.565Z,65.86
2018-05-13T00:45:15.906Z,65.83
2018-05-13T00:47:44.154Z,67.29
2018-05-13T00:50:12.422Z,67.82
2018-05-13T00:52:40.752Z,68.68
2018-05-13T00:55:09.013Z,68.44
2018-05-13T00:57:37.324Z,69.23
2018-05-13T01:00:05.619Z,68.72
2018-05-13T01:02:33.915Z,68.97
2018-05-13T01:05:02.239Z,68.51
2018-05-13T01:07:30.526Z,68.59
2018-05-13T01:09:58.790Z,69.24
2018-05-13T01:12:27.111Z,69.60
2018-05-13T01:14:55.399Z,69.37
2018-05-13T01:17:23.673Z,69.03
2018-05-13T01:19:51.971Z,68.97
2018-05-13T01:22:20.358Z,68.74
2018-05-13T01:24:48.682Z,68.41
2018-05-13T01:27:16.943Z,68.88
2018-05-13T01:29:45.293Z,68.59
2018-05-13T01:32:13.605Z,67.74
2018-05-13T01:34:41.898Z,68.08
2018-05-13T01:37:10.173Z,68.46
2018-05-13T01:39:38.462Z,67.95
2018-05-13T01:42:07.238Z,68.24
2018-05-13T01:44:35.530Z,68.39
2018-05-13T01:47:04.214Z,68.57
2018-05-13T01:49:32.950Z,68.18
2018-05-13T01:52:01.227Z,69.01
2018-05-13T01:54:29.529Z,68.68
2018-05-13T01:56:57.787Z,69.05
2018-05-13T01:59:26.589Z,69.52
2018-05-13T02:01:54.898Z,70.30
2018-05-13T02:04:23.208Z,69.27
2018-05-13T02:06:51.496Z,68.73
2018-05-13T02:09:19.774Z,68.45
2018-05-13T02:11:48.089Z,68.12
2018-05-13T02:14:16.371Z,68.71
2018-05-13T02:16:45.191Z,69.26
2018-05-13T02:19:13.470Z,69.76
2018-05-13T02:21:41.780Z,70.07
2018-05-13T02:24:10.058Z,70.08
2018-05-13T02:26:38.416Z,69.78
2018-05-13T02:29:06.700Z,69.30
2018-05-13T02:31:35.003Z,69.54
2018-05-13T02:34:04.319Z,69.73
2018-05-13T02:36:32.678Z,69.25
2018-05-13T02:39:00.943Z,68.61
2018-05-13T02:41:29.323Z,68.79
2018-05-13T02:43:57.566Z,68.70
2018-05-13T02:46:25.878Z,68.95
2018-05-13T02:48:54.217Z,68.22
2018-05-13T02:51:22.499Z,68.46
2018-05-13T02:53:50.776Z,68.18
2018-05-13T02:56:19.084Z,67.95
2018-05-13T02:58:47.376Z,67.91
2018-05-13T03:01:15.631Z,67.73
2018-05-13T03:03:43.915Z,67.54
2018-05-13T03:06:12.277Z,67.50
2018-05-13T03:08:40.572Z,68.93
2018-05-13T03:11:08.870Z,68.85
2018-05-13T03:13:37.151Z,69.64
2018-05-13T03:16:05.430Z,70.10
2018-05-13T03:18:34.497Z,69.39
2018-05-13T03:21:02.737Z,69.45
2018-05-13T03:23:31.023Z,68.76
2018-05-13T03:25:59.324Z,68.81
2018-05-13T03:28:27.610Z,68.43
2018-05-13T03:30:56.525Z,67.30
2018-05-13T03:33:24.816Z,66.78
2018-05-13T03:35:53.068Z,66.26
2018-05-13T03:38:21.351Z,65.67
2018-05-13T03:40:49.656Z,65.66
2018-05-13T03:43:17.937Z,65.36
2018-05-13T03:45:46.210Z,65.37
2018-05-13T03:48:14.477Z,65.56
2018-05-13T03:50:42.781Z,66.37
2018-05-13T03:53:11.040Z,66.52
2018-05-13T03:55:39.374Z,67.12
2018-05-13T03:58:07.642Z,68.74
2018-05-13T04:00:36.019Z,68.09
2018-05-13T04:03:05.792Z,68.37
2018-05-13T04:05:34.093Z,68.52
2018-05-13T04:11:28.007Z,68.67
2018-05-13T04:14:08.055Z,68.52
2018-05-13T04:16:36.486Z,68.80
2018-05-13T04:19:05.557Z,67.87
2018-05-13T04:21:33.843Z,67.15
2018-05-13T04:24:02.129Z,66.50
2018-05-13T04:26:30.413Z,66.27
2018-05-13T04:28:58.665Z,66.80
2018-05-13T04:31:26.987Z,67.00
2018-05-13T04:33:55.276Z,67.30
2018-05-13T04:36:23.574Z,66.75
2018-05-13T04:38:51.862Z,66.13
2018-05-13T04:41:20.194Z,66.11
2018-05-13T04:43:48.491Z,66.12
2018-05-13T04:46:16.759Z,65.74
2018-05-13T04:48:45.055Z,65.70
2018-05-13T04:51:13.323Z,65.86
2018-05-13T04:53:41.612Z,66.01
2018-05-13T04:56:09.886Z,66.17
2018-05-13T04:58:38.185Z,66.27
2018-05-13T05:01:07.370Z,66.95
2018-05-13T05:03:35.673Z,67.50
2018-05-13T05:06:04.933Z,67.80
2018-05-13T05:08:33.222Z,68.46
2018-05-13T05:11:01.541Z,68.51
2018-05-13T05:13:33.560Z,68.99
2018-05-13T05:16:01.823Z,69.97
2018-05-13T05:18:30.109Z,71.17
2018-05-13T05:20:58.372Z,71.67
2018-05-13T05:23:26.681Z,72.18
2018-05-13T05:25:54.942Z,72.51
2018-05-13T05:28:23.243Z,72.04
2018-05-13T05:30:51.515Z,72.09
2018-05-13T05:33:19.804Z,72.46
2018-05-13T05:35:48.115Z,72.27
2018-05-13T05:38:16.585Z,72.01
2018-05-13T05:40:44.853Z,71.67
2018-05-13T05:43:13.123Z,71.76
2018-05-13T05:45:41.483Z,71.79
2018-05-13T05:48:09.753Z,71.41
2018-05-13T05:50:38.042Z,70.45
2018-05-13T05:53:06.307Z,70.42
2018-05-13T05:55:34.597Z,70.97
2018-05-13T05:58:03.001Z,71.16
2018-05-13T06:00:31.290Z,70.84
2018-05-13T06:02:59.567Z,71.09
2018-05-13T06:05:27.924Z,70.76
2018-05-13T06:07:56.198Z,70.33
2018-05-13T06:10:24.485Z,70.28
2018-05-13T06:12:52.779Z,70.55
2018-05-13T06:15:21.054Z,71.40
2018-05-13T06:17:49.344Z,71.43
2018-05-13T06:20:17.690Z,71.57
2018-05-13T06:22:46.250Z,71.82
2018-05-13T06:25:14.640Z,71.80
2018-05-13T06:27:42.864Z,71.65
2018-05-13T06:30:11.144Z,72.20
2018-05-13T06:32:39.458Z,73.21
2018-05-13T06:35:08.651Z,73.55
2018-05-13T06:37:36.970Z,74.59
2018-05-13T06:40:05.238Z,74.69
2018-05-13T06:42:33.610Z,74.54
2018-05-13T06:45:01.814Z,75.75
2018-05-13T06:47:30.115Z,76.12
2018-05-13T06:49:58.409Z,74.97
2018-05-13T06:52:26.693Z,75.51
2018-05-13T06:54:54.999Z,75.76
2018-05-13T06:57:25.135Z,75.63
2018-05-13T06:59:53.346Z,75.63
2018-05-13T07:02:21.638Z,76.04
2018-05-13T07:04:49.950Z,76.32
2018-05-13T07:07:18.588Z,76.32
2018-05-13T07:09:46.860Z,76.85
2018-05-13T07:12:15.180Z,77.50
2018-05-13T07:14:43.491Z,78.01
2018-05-13T07:17:11.843Z,77.73
2018-05-13T07:19:40.102Z,77.51
2018-05-13T07:22:08.404Z,77.54
2018-05-13T07:24:36.706Z,77.92
2018-05-13T07:27:05.020Z,78.12
2018-05-13T07:29:33.303Z,77.78
2018-05-13T07:32:03.939Z,77.99
2018-05-13T07:34:32.252Z,79.62
2018-05-13T07:37:16.125Z,81.08
2018-05-13T07:39:44.392Z,80.23
2018-05-13T07:42:12.676Z,81.37
2018-05-13T07:44:41.236Z,81.57
2018-05-13T07:47:09.561Z,80.50
2018-05-13T07:49:37.894Z,79.54
2018-05-13T07:52:06.234Z,79.14
2018-05-13T07:54:34.535Z,80.26
2018-05-13T07:57:02.845Z,81.15
2018-05-13T07:59:31.130Z,80.00
2018-05-13T08:01:59.796Z,79.51
2018-05-13T08:04:28.100Z,79.97
2018-05-13T08:06:56.375Z,79.86
2018-05-13T08:09:26.506Z,80.12
2018-05-13T08:11:56.748Z,80.23
2018-05-13T08:14:25.309Z,79.96
2018-05-13T08:16:53.559Z,79.55
2018-05-13T08:19:22.041Z,79.61
2018-05-13T08:21:50.283Z,81.12
2018-05-13T08:24:19.312Z,82.72
2018-05-13T08:26:47.644Z,83.60
2018-05-13T08:29:15.909Z,83.28
2018-05-13T08:31:44.799Z,83.64
2018-05-13T08:34:13.154Z,84.00
2018-05-13T08:36:41.479Z,83.39
2018-05-13T08:39:09.745Z,82.75
2018-05-13T08:41:38.041Z,81.76
2018-05-13T08:44:07.156Z,82.32
2018-05-13T08:46:35.484Z,81.38
2018-05-13T08:49:03.750Z,80.23
2018-05-13T08:51:32.102Z,82.01
2018-05-13T08:54:00.492Z,82.67
2018-05-13T08:56:28.711Z,82.96
2018-05-13T08:58:56.995Z,82.17
2018-05-13T09:01:25.296Z,82.37
2018-05-13T09:03:53.612Z,82.85
2018-05-13T09:06:21.908Z,83.05
2018-05-13T09:08:50.193Z,82.82
2018-05-13T09:11:18.500Z,80.92
2018-05-13T09:13:46.768Z,79.72
2018-05-13T09:16:15.170Z,80.99
2018-05-13T09:18:43.442Z,81.00
2018-05-13T09:21:12.217Z,80.94
2018-05-13T09:23:40.495Z,80.25
2018-05-13T09:26:08.772Z,79.24
2018-05-13T09:28:37.095Z,78.79
2018-05-13T09:31:05.375Z,78.53
2018-05-13T09:33:33.684Z,78.40
2018-05-13T09:36:01.962Z,79.13
2018-05-13T09:38:30.300Z,78.87
2018-05-13T09:40:58.952Z,78.63
2018-05-13T09:43:27.296Z,77.56
2018-05-13T09:45:55.656Z,78.84
2018-05-13T09:48:23.928Z,79.06
2018-05-13T09:50:52.242Z,79.31
2018-05-13T09:53:20.562Z,77.96
2018-05-13T09:55:49.335Z,78.15
2018-05-13T09:58:17.647Z,78.18
2018-05-13T10:00:46.004Z,78.13
2018-05-13T10:03:14.991Z,77.40
2018-05-13T10:05:43.273Z,77.60
2018-05-13T10:08:11.565Z,78.00
2018-05-13T10:10:39.952Z,77.17
2018-05-13T10:13:08.228Z,76.24
2018-05-13T10:15:36.550Z,76.56
2018-05-13T10:18:05.332Z,75.63
2018-05-13T10:20:33.636Z,75.42
2018-05-13T10:23:02.089Z,76.03
2018-05-13T10:25:30.355Z,76.07
2018-05-13T10:27:58.626Z,76.58
2018-05-13T10:30:26.983Z,76.06
2018-05-13T10:32:55.228Z,75.91
2018-05-13T10:35:23.584Z,76.01
2018-05-13T10:37:51.843Z,76.30
2018-05-13T10:40:20.172Z,76.52
2018-05-13T10:42:48.801Z,76.19
2018-05-13T10:45:17.067Z,76.76
2018-05-13T10:47:45.390Z,76.81
2018-05-13T10:50:13.658Z,76.42
2018-05-13T10:52:42.030Z,76.15
2018-05-13T10:55:10.301Z,76.24
2018-05-13T10:57:38.662Z,76.15
2018-05-13T11:00:06.871Z,77.17
2018-05-13T11:02:35.176Z,77.13
2018-05-13T11:05:03.479Z,76.95
2018-05-13T11:07:32.562Z,77.09
2018-05-13T11:10:01.303Z,77.13
2018-05-13T11:12:29.623Z,77.40
2018-05-13T11:14:59.003Z,78.29
2018-05-13T11:17:27.410Z,77.96
2018-05-13T11:19:55.685Z,76.82
2018-05-13T11:22:24.500Z,76.61
2018-05-13T11:24:52.791Z,76.49
2018-05-13T11:27:21.105Z,76.37
2018-05-13T11:29:50.016Z,76.60
2018-05-13T11:32:18.321Z,76.85
2018-05-13T11:34:46.655Z,76.36
2018-05-13T11:37:15.632Z,76.65
2018-05-13T11:39:44.932Z,75.73
2018-05-13T11:42:13.206Z,75.33
2018-05-13T11:44:41.508Z,75.87
2018-05-13T11:47:09.789Z,75.63
2018-05-13T11:49:38.078Z,75.47
2018-05-13T11:52:06.363Z,75.11
2018-05-13T11:54:34.695Z,76.13
2018-05-13T11:57:02.934Z,76.11
2018-05-13T11:59:31.698Z,76.48
2018-05-13T12:02:00.003Z,76.99
2018-05-13T12:04:28.279Z,77.54
2018-05-13T12:06:56.554Z,78.04
2018-05-13T12:09:24.972Z,77.21
2018-05-13T12:11:53.250Z,78.01
2018-05-13T12:14:21.586Z,77.37
2018-05-13T12:16:49.883Z,77.87
2018-05-13T12:19:18.145Z,77.33
2018-05-13T12:21:46.442Z,76.89
2018-05-13T12:24:14.719Z,77.41
2018-05-13T12:26:43.023Z,77.34
2018-05-13T12:29:11.322Z,77.70
2018-05-13T12:31:40.084Z,78.07
2018-05-13T12:34:08.357Z,77.01
2018-05-13T12:36:36.786Z,77.16
2018-05-13T12:39:05.806Z,77.34
2018-05-13T12:41:34.149Z,78.29
2018-05-13T12:44:02.465Z,78.25
2018-05-13T12:46:30.805Z,78.04
2018-05-13T12:48:59.169Z,77.12
2018-05-13T12:51:27.478Z,77.09
2018-05-13T12:53:55.818Z,77.43
2018-05-13T12:56:24.174Z,77.37
2018-05-13T12:58:53.310Z,77.25
2018-05-13T13:01:22.640Z,76.80
2018-05-13T13:03:50.966Z,76.38
2018-05-13T13:06:19.225Z,76.53
2018-05-13T13:08:47.511Z,76.62
2018-05-13T13:11:15.875Z,78.31
2018-05-13T13:13:44.174Z,77.63
2018-05-13T13:16:12.458Z,77.21
2018-05-13T13:18:40.761Z,76.78
2018-05-13T13:21:09.064Z,77.01
2018-05-13T13:23:37.342Z,77.24
2018-05-13T13:26:05.661Z,77.34
2018-05-13T13:28:34.775Z,77.80
2018-05-13T13:31:03.048Z,77.20
2018-05-13T13:33:32.183Z,77.28
2018-05-13T13:36:00.490Z,77.48
2018-05-13T13:38:29.682Z,78.09
2018-05-13T13:40:57.955Z,77.75
2018-05-13T13:43:26.279Z,77.02
2018-05-13T13:45:54.614Z,77.36
2018-05-13T13:48:22.936Z,77.19
2018-05-13T13:50:51.213Z,76.91
2018-05-13T13:53:19.634Z,76.34
2018-05-13T13:55:48.045Z,76.31
2018-05-13T13:58:17.352Z,77.03
2018-05-13T14:00:46.932Z,77.34
2018-05-13T14:03:15.227Z,76.72
2018-05-13T14:05:43.542Z,76.84
2018-05-13T14:08:11.824Z,75.92
2018-05-13T14:10:40.452Z,75.84
2018-05-13T14:13:08.772Z,75.95
2018-05-13T14:15:37.158Z,75.67
2018-05-13T14:18:05.706Z,76.12
2018-05-13T14:20:33.992Z,75.93
2018-05-13T14:23:02.275Z,75.75
2018-05-13T14:25:30.576Z,75.42
2018-05-13T14:27:58.845Z,76.14
2018-05-13T14:30:27.146Z,76.60
2018-05-13T14:32:55.842Z,76.09
2018-05-13T14:35:24.104Z,76.17
2018-05-13T14:37:52.447Z,76.37
2018-05-13T14:40:20.743Z,76.00
2018-05-13T14:42:49.043Z,76.18
2018-05-13T14:45:17.470Z,75.97
2018-05-13T14:47:45.743Z,75.51
2018-05-13T14:50:13.980Z,75.19
2018-05-13T14:52:42.295Z,75.60
2018-05-13T14:55:10.635Z,75.76
2018-05-13T14:57:38.916Z,75.92
2018-05-13T15:00:07.202Z,75.59
2018-05-13T15:02:35.551Z,75.53
2018-05-13T15:05:04.719Z,74.81
2018-05-13T15:07:33.047Z,74.95
2018-05-13T15:10:01.323Z,74.78
2018-05-13T15:12:29.670Z,74.78
2018-05-13T15:14:58.934Z,75.07
2018-05-13T15:17:27.248Z,74.87
2018-05-13T15:19:55.511Z,75.51
2018-05-13T15:22:29.368Z,74.93
2018-05-13T15:24:57.566Z,75.18
2018-05-13T15:27:25.879Z,75.19
2018-05-13T15:29:54.143Z,74.83
2018-05-13T15:32:22.482Z,74.72
2018-05-13T15:34:50.774Z,75.21
2018-05-13T15:37:19.155Z,75.19
2018-05-13T15:39:47.351Z,75.09
2018-05-13T15:42:16.459Z,75.38
2018-05-13T15:44:44.755Z,75.96
2018-05-13T15:47:13.043Z,76.56
2018-05-13T15:49:41.327Z,76.08
2018-05-13T15:52:09.600Z,75.68
2018-05-13T15:54:37.926Z,75.44
2018-05-13T15:57:06.244Z,76.51
2018-05-13T15:59:34.534Z,76.60
2018-05-13T16:02:02.799Z,75.84
2018-05-13T16:04:31.110Z,75.12
2018-05-13T16:06:59.382Z,75.09
2018-05-13T16:09:28.030Z,75.52
2018-05-13T16:11:56.350Z,76.00
2018-05-13T16:14:25.194Z,76.11
2018-05-13T16:16:53.483Z,75.61
2018-05-13T16:19:21.746Z,75.55
2018-05-13T16:21:50.055Z,75.51
2018-05-13T16:24:18.312Z,75.76
2018-05-13T16:26:46.609Z,75.94
2018-05-13T16:29:14.874Z,76.20
2018-05-13T16:31:43.170Z,76.00
2018-05-13T16:34:11.434Z,76.29
2018-05-13T16:36:39.739Z,76.39
2018-05-13T16:39:08.002Z,76.52
2018-05-13T16:41:36.301Z,76.89
2018-05-13T16:44:04.603Z,76.64
2018-05-13T16:46:32.915Z,76.75
2018-05-13T16:49:01.244Z,76.56
2018-05-13T16:51:29.536Z,76.63
2018-05-13T16:53:57.793Z,76.77
2018-05-13T16:56:26.126Z,77.07
2018-05-13T16:58:54.406Z,76.71
2018-05-13T17:01:22.706Z,76.54
2018-05-13T17:03:50.984Z,76.32
2018-05-13T17:06:19.504Z,75.92
2018-05-13T17:08:47.798Z,76.04
2018-05-13T17:11:16.116Z,75.76
2018-05-13T17:13:44.389Z,75.84
2018-05-13T17:16:12.731Z,76.13
2018-05-13T17:18:41.003Z,76.01
2018-05-13T17:21:09.294Z,76.41
2018-05-13T17:23:37.585Z,76.66
2018-05-13T17:26:05.875Z,76.46
2018-05-13T17:28:34.148Z,76.14
2018-05-13T17:31:02.446Z,76.74
2018-05-13T17:33:31.519Z,76.79
2018-05-13T17:35:59.785Z,76.50
2018-05-13T17:38:28.086Z,75.70
2018-05-13T17:40:57.466Z,76.18
2018-05-13T17:43:26.014Z,75.84
2018-05-13T17:45:55.409Z,75.96
2018-05-13T17:48:23.753Z,75.71
2018-05-13T17:50:52.077Z,75.77
2018-05-13T17:53:21.374Z,75.63
2018-05-13T17:55:49.687Z,75.70
2018-05-13T17:58:17.961Z,75.95
2018-05-13T18:00:46.277Z,75.68
2018-05-13T18:03:14.680Z,75.21
2018-05-13T18:05:42.815Z,74.62
2018-05-13T18:08:11.158Z,74.27
2018-05-13T18:10:39.438Z,74.85
2018-05-13T18:13:07.740Z,74.98
2018-05-13T18:15:36.023Z,74.84
2018-05-13T18:18:04.324Z,75.04
2018-05-13T18:20:32.586Z,75.32
2018-05-13T18:23:00.914Z,75.07
2018-05-13T18:25:29.489Z,74.95
2018-05-13T18:27:57.741Z,75.17
2018-05-13T18:30:26.069Z,75.02
2018-05-13T18:32:54.547Z,74.83
2018-05-13T18:35:22.889Z,74.40
2018-05-13T18:37:51.234Z,74.66
2018-05-13T18:40:20.438Z,74.69
2018-05-13T18:42:48.765Z,74.14
2018-05-13T18:45:17.113Z,74.38
2018-05-13T18:47:45.404Z,74.24
2018-05-13T18:50:13.741Z,74.48
2018-05-13T18:52:42.050Z,74.70
2018-05-13T18:55:10.374Z,74.71
2018-05-13T18:57:38.686Z,74.47
2018-05-13T19:00:06.967Z,74.90
2018-05-13T19:02:35.310Z,74.87
2018-05-13T19:05:03.611Z,74.53
2018-05-13T19:07:31.935Z,74.71
2018-05-13T19:10:00.215Z,74.96
2018-05-13T19:12:28.523Z,74.86
2018-05-13T19:14:56.788Z,74.83
2018-05-13T19:17:25.110Z,75.05
2018-05-13T19:19:53.432Z,76.09
2018-05-13T19:22:21.727Z,76.16
2018-05-13T19:24:50.059Z,76.55
2018-05-13T19:27:18.334Z,75.86
2018-05-13T19:29:46.595Z,76.13
2018-05-13T19:32:14.917Z,75.94
2018-05-13T19:34:43.183Z,75.91
2018-05-13T19:37:11.491Z,76.02
2018-05-13T19:39:39.797Z,76.03
2018-05-13T19:42:09.375Z,76.43
2018-05-13T19:44:37.687Z,75.56
2018-05-13T19:47:05.968Z,75.83
2018-05-13T19:49:34.316Z,76.05
2018-05-13T19:52:02.582Z,76.31
2018-05-13T19:54:30.941Z,76.90
2018-05-13T19:56:59.246Z,77.05
2018-05-13T19:59:27.556Z,77.19
2018-05-13T20:01:55.839Z,77.04
2018-05-13T20:04:24.463Z,76.63
2018-05-13T20:06:52.731Z,76.74
2018-05-13T20:09:21.060Z,76.28
2018-05-13T20:11:49.336Z,75.73
2018-05-13T20:14:19.617Z,75.34
2018-05-13T20:16:47.904Z,75.48
2018-05-13T20:19:16.306Z,75.39
2018-05-13T20:21:44.551Z,75.81
2018-05-13T20:24:12.911Z,75.86
2018-05-13T20:26:41.190Z,75.96
2018-05-13T20:29:09.518Z,75.82
2018-05-13T20:31:37.832Z,75.88
2018-05-13T20:34:06.104Z,75.94
2018-05-13T20:36:34.418Z,76.29
2018-05-13T20:39:02.761Z,76.49
2018-05-13T20:41:31.028Z,76.43
2018-05-13T20:43:59.355Z,76.94
2018-05-13T20:46:27.635Z,77.15
2018-05-13T20:48:55.959Z,77.30
2018-05-13T20:51:24.241Z,78.22
2018-05-13T20:53:52.626Z,78.05
2018-05-13T20:56:20.923Z,78.21
2018-05-13T20:58:49.195Z,78.62
2018-05-13T21:01:17.528Z,79.08
2018-05-13T21:03:46.137Z,79.23
2018-05-13T21:06:14.430Z,78.86
2018-05-13T21:08:42.725Z,78.39
2018-05-13T21:11:11.112Z,78.07
2018-05-13T21:13:39.473Z,77.82
2018-05-13T21:16:07.799Z,79.08
2018-05-13T21:18:36.178Z,78.69
2018-05-13T21:21:04.570Z,79.70
2018-05-13T21:23:32.904Z,79.76
2018-05-13T21:26:01.357Z,78.67
2018-05-13T21:28:29.730Z,80.02
2018-05-13T21:30:58.008Z,80.69
2018-05-13T21:33:26.291Z,81.12
2018-05-13T21:35:54.629Z,81.00
2018-05-13T21:38:22.919Z,81.07
2018-05-13T21:40:51.258Z,80.97
2018-05-13T21:43:19.548Z,80.72
2018-05-13T21:45:47.929Z,80.25
2018-05-13T21:48:16.271Z,79.39
2018-05-13T21:50:44.615Z,79.03
2018-05-13T21:53:12.914Z,79.42
2018-05-13T21:55:41.219Z,79.80
2018-05-13T21:58:09.544Z,80.08
2018-05-13T22:00:38.166Z,79.61
2018-05-13T22:03:06.592Z,79.90
2018-05-13T22:05:34.865Z,80.25
2018-05-13T22:08:04.239Z,80.21
2018-05-13T22:10:32.516Z,80.01
2018-05-13T22:13:00.875Z,79.87
2018-05-13T22:15:29.154Z,79.97
2018-05-13T22:17:57.650Z,80.03
2018-05-13T22:20:25.962Z,80.01
2018-05-13T22:22:54.289Z,79.97
2018-05-13T22:25:22.592Z,79.56
2018-05-13T22:27:50.892Z,79.69
2018-05-13T22:30:19.170Z,79.87
2018-05-13T22:32:47.490Z,80.33
2018-05-13T22:35:15.771Z,80.28
2018-05-13T22:37:44.086Z,81.22
2018-05-13T22:40:12.644Z,81.44
2018-05-13T22:42:40.979Z,81.32
2018-05-13T22:45:09.281Z,81.12
2018-05-13T22:47:37.587Z,81.04
2018-05-13T22:50:06.164Z,81.17
2018-05-13T22:52:34.444Z,81.44
2018-05-13T22:55:02.804Z,81.93
2018-05-13T22:57:31.057Z,82.34
2018-05-13T22:59:59.366Z,83.10
2018-05-13T23:02:27.813Z,83.83
2018-05-13T23:04:56.153Z,83.55
2018-05-13T23:07:24.399Z,83.20
2018-05-13T23:09:52.761Z,83.08
2018-05-13T23:12:21.024Z,82.95
2018-05-13T23:14:49.333Z,83.49
2018-05-13T23:17:17.634Z,83.90
2018-05-13T23:19:45.926Z,84.03
2018-05-13T23:22:26.557Z,83.92
2018-05-13T23:24:54.891Z,83.75
2018-05-13T23:27:23.241Z,84.01
2018-05-13T23:29:51.511Z,83.84
2018-05-13T23:32:19.838Z,83.74
2018-05-13T23:34:48.460Z,84.00
2018-05-13T23:37:16.731Z,83.29
2018-05-13T23:39:45.059Z,83.57
2018-05-13T23:42:13.351Z,84.07
2018-05-13T23:44:41.662Z,84.34
2018-05-13T23:47:09.944Z,83.71
2018-05-13T23:49:38.239Z,84.06
2018-05-13T23:52:06.534Z,83.54
2018-05-13T23:54:34.930Z,83.15
2018-05-13T23:57:03.247Z,83.68
2018-05-13T23:59:32.743Z,83.31
